Карточка аэропорта UMKK

Внимание!
Информация на этой странице в стадии наполнения.
Если вы не увидели какой-то информации, или заметили неточность - пожалуйста сообщите нам!
Спасибо!
Команда RU-STAFF
Название аэропортаХраброво
Название аэропорта (англ.)Khrabrovo
Превышение43 ft. (13.1 m.)
Координаты54°53.4', 20°35.55'
Высота перехода1000m
Эшелон переходаQFE>=742mm:FL050; QFE<742:FL060
Коды ответчика6620-6637
Зона ОрВДКалининград РПИ (UMKK)
Данные METARUMKK 241430Z 30011G17MPS 9999 BKN037 14/07 Q1004 R24/95D NOSIG RMK QFE752/1002
Проноз погоды (TAF)UMKK 241355Z 2415/2515 29009G17MPS 9999 BKN020 BECMG 2416/2417 26006G12MPS BECMG 2420/2421 6000 -RA FEW006 BKN016 TEMPO 2421/2509 4000 -SHRA BR BKN006 BKN013CB BECMG 2500/2502 27009G16MPS BECMG 2509/2511 9999 SCT016
NOTAMshow/hide NOTAM
AWOS   TABLE

Информация о ВПП

ВПП Длина ВПП (м.) Покрытие Курс ВПП Частота ILS
063350Асфальтобетон60110.3
243350Асфальтобетон240109.5

Диспетчерские позиции

Позывной Наименование органа УВД Частота
UMKK_APPКалининград-Подход126.0
UMKK_TWRКалининград-Вышка127.2



Спутниковое изображение